createdAt,value
2019-05-02T00:04:00.836Z,36.30
2019-05-02T00:06:30.525Z,34.33
2019-05-02T00:08:55.574Z,37.40
2019-05-02T00:11:27.104Z,36.37
2019-05-02T00:14:17.207Z,36.97
2019-05-02T00:16:25.813Z,36.50
2019-05-02T00:18:45.423Z,35.37
2019-05-02T00:21:10.705Z,35.87
2019-05-02T00:23:36.260Z,33.83
2019-05-02T00:26:00.227Z,34.87
2019-05-02T00:28:29.470Z,36.70
2019-05-02T00:31:13.272Z,35.70
2019-05-02T00:36:30.339Z,37.00
2019-05-02T00:38:54.803Z,36.37
2019-05-02T00:41:48.550Z,38.23
2019-05-02T00:44:32.157Z,36.00
2019-05-02T00:47:42.334Z,37.17
2019-05-02T00:50:16.985Z,36.83
2019-05-02T00:52:48.286Z,34.23
2019-05-02T00:54:59.883Z,32.63
2019-05-02T00:57:45.035Z,32.23
2019-05-02T01:00:21.282Z,33.87
2019-05-02T01:03:22.723Z,31.77
2019-05-02T01:05:50.199Z,34.37
2019-05-02T01:08:25.840Z,32.10
2019-05-02T01:11:09.111Z,32.37
2019-05-02T01:16:06.138Z,35.23
2019-05-02T01:18:41.320Z,33.97
2019-05-02T01:21:21.064Z,33.03
2019-05-02T01:23:27.634Z,34.20
2019-05-02T01:25:55.353Z,32.60
2019-05-02T01:31:01.935Z,33.47
2019-05-02T01:33:41.817Z,33.60
2019-05-02T01:36:28.490Z,34.90
2019-05-02T01:38:53.530Z,33.80
2019-05-02T01:41:19.701Z,33.20
2019-05-02T01:44:00.158Z,36.37
2019-05-02T01:46:39.554Z,33.83
2019-05-02T01:49:09.220Z,33.60
2019-05-02T01:52:04.293Z,35.27
2019-05-02T01:57:39.987Z,33.80
2019-05-02T02:00:18.960Z,36.67
2019-05-02T02:02:51.304Z,34.40
2019-05-02T02:05:36.771Z,34.33
2019-05-02T02:07:55.586Z,32.57
2019-05-02T02:10:43.756Z,34.20
2019-05-02T02:15:46.961Z,34.10
2019-05-02T02:18:38.062Z,35.87
2019-05-02T02:21:25.816Z,33.13
2019-05-02T02:23:57.530Z,36.17
2019-05-02T02:26:06.960Z,37.33
2019-05-02T02:28:31.999Z,34.70
2019-05-02T02:30:39.579Z,36.00
2019-05-02T02:33:00.496Z,36.07
2019-05-02T02:35:14.330Z,34.10
2019-05-02T02:37:26.215Z,34.40
2019-05-02T02:39:38.587Z,37.30
2019-05-02T02:41:52.100Z,37.57
2019-05-02T02:44:19.256Z,38.80
2019-05-02T02:46:37.567Z,35.23
2019-05-02T02:48:50.392Z,36.17
2019-05-02T02:51:08.312Z,37.17
2019-05-02T02:53:18.358Z,38.17
2019-05-02T02:55:31.711Z,35.57
2019-05-02T02:57:43.619Z,37.47
2019-05-02T03:00:06.107Z,38.47
2019-05-02T03:02:19.535Z,39.33
2019-05-02T03:04:26.831Z,38.30
2019-05-02T03:09:48.106Z,39.47
2019-05-02T03:12:26.060Z,38.83
2019-05-02T03:14:59.585Z,40.23
2019-05-02T03:17:13.131Z,39.67
2019-05-02T03:20:05.699Z,39.97
2019-05-02T03:22:34.623Z,40.30
2019-05-02T03:25:03.939Z,38.20
2019-05-02T03:27:18.753Z,39.93
2019-05-02T03:29:46.699Z,37.63
2019-05-02T03:32:29.936Z,39.90
2019-05-02T03:37:18.662Z,41.13
2019-05-02T03:39:18.298Z,40.57
2019-05-02T03:41:47.337Z,40.60
2019-05-02T03:43:46.614Z,40.07
2019-05-02T03:45:56.537Z,42.00
2019-05-02T03:48:32.766Z,41.30
2019-05-02T03:51:12.081Z,43.20
2019-05-02T03:54:07.062Z,40.97
2019-05-02T03:56:26.654Z,40.57
2019-05-02T04:02:28.426Z,43.10
2019-05-02T04:05:00.725Z,42.60
2019-05-02T04:07:26.602Z,41.83
2019-05-02T04:09:48.972Z,41.23
2019-05-02T04:12:35.320Z,39.47
2019-05-02T04:14:46.466Z,42.80
2019-05-02T04:20:09.251Z,41.30
2019-05-02T04:23:08.000Z,40.73
2019-05-02T04:25:27.962Z,40.60
2019-05-02T04:31:01.937Z,42.73
2019-05-02T04:33:29.250Z,40.60
2019-05-02T04:36:28.482Z,42.87
2019-05-02T04:39:05.892Z,37.37
2019-05-02T04:47:20.771Z,39.30
2019-05-02T04:50:07.720Z,41.57
2019-05-02T04:52:23.216Z,38.83
2019-05-02T04:55:14.757Z,39.00
2019-05-02T04:57:52.587Z,39.20
2019-05-02T05:00:39.125Z,39.33
2019-05-02T05:06:27.669Z,38.47
2019-05-02T05:14:50.470Z,36.77
2019-05-02T05:17:19.366Z,35.47
2019-05-02T05:19:54.560Z,38.00
2019-05-02T05:22:28.342Z,38.17
2019-05-02T05:30:49.597Z,37.10
2019-05-02T05:32:32.695Z,35.20
2019-05-02T05:34:58.027Z,37.77
2019-05-02T05:40:00.630Z,37.03
2019-05-02T05:42:41.667Z,38.80
2019-05-02T05:45:33.263Z,37.80
2019-05-02T05:48:18.401Z,37.83
2019-05-02T05:54:02.790Z,36.47
2019-05-02T06:05:07.960Z,34.83
2019-05-02T06:07:27.843Z,37.20
2019-05-02T06:13:32.179Z,39.87
2019-05-02T06:16:25.256Z,38.97
2019-05-02T06:19:30.188Z,40.03
2019-05-02T06:24:46.176Z,38.70
2019-05-02T06:27:30.735Z,40.40
2019-05-02T06:30:22.010Z,41.00
2019-05-02T06:33:11.752Z,39.77
2019-05-02T06:38:24.311Z,41.37
2019-05-02T06:41:06.361Z,41.20
2019-05-02T06:43:33.544Z,42.30
2019-05-02T06:46:16.430Z,38.90
2019-05-02T06:49:26.192Z,38.67
2019-05-02T06:52:32.588Z,37.03
2019-05-02T06:54:54.035Z,40.47
2019-05-02T06:57:51.676Z,39.83
2019-05-02T07:00:34.734Z,37.00
2019-05-02T07:03:15.453Z,38.53
2019-05-02T07:09:07.138Z,36.10
2019-05-02T07:14:18.552Z,38.57
2019-05-02T07:17:12.119Z,39.20
2019-05-02T07:23:26.952Z,37.97
2019-05-02T07:29:26.960Z,40.27
2019-05-02T07:35:19.021Z,41.50
2019-05-02T07:45:24.044Z,44.40
2019-05-02T07:47:42.522Z,45.43
2019-05-02T07:50:41.254Z,45.93
2019-05-02T07:53:44.341Z,43.43
2019-05-02T08:00:58.581Z,41.37
2019-05-02T08:03:22.169Z,47.03
2019-05-02T08:06:18.334Z,46.20
2019-05-02T08:08:43.010Z,48.17
2019-05-02T08:11:37.004Z,47.83
2019-05-02T08:19:27.500Z,48.77
2019-05-02T08:21:50.938Z,46.90
2019-05-02T08:24:18.050Z,47.27
2019-05-02T08:26:34.871Z,43.83
2019-05-02T08:29:17.500Z,46.53
2019-05-02T08:31:13.492Z,50.40
2019-05-02T08:36:06.862Z,49.20
2019-05-02T08:38:36.306Z,46.67
2019-05-02T08:40:47.710Z,46.73
2019-05-02T08:42:49.823Z,46.80
2019-05-02T08:45:05.061Z,45.53
2019-05-02T08:47:28.540Z,46.60
2019-05-02T08:50:12.158Z,42.67
2019-05-02T08:52:48.044Z,43.40
2019-05-02T08:55:44.941Z,43.07
2019-05-02T09:00:54.320Z,43.17
2019-05-02T09:05:45.994Z,43.60
2019-05-02T09:08:35.004Z,40.07
2019-05-02T09:11:30.835Z,42.20
2019-05-02T09:14:05.213Z,39.20
2019-05-02T09:17:15.698Z,41.10
2019-05-02T09:20:18.643Z,43.20
2019-05-02T09:28:42.766Z,39.80
2019-05-02T09:31:23.827Z,40.20
2019-05-02T09:37:32.191Z,41.37
2019-05-02T09:39:55.989Z,43.07
2019-05-02T09:42:34.663Z,43.17
2019-05-02T09:45:41.174Z,42.63
2019-05-02T09:49:08.995Z,40.50
2019-05-02T09:50:31.331Z,43.23
2019-05-02T09:53:25.523Z,42.60
2019-05-02T09:55:57.289Z,40.57
2019-05-02T09:57:51.917Z,39.57
2019-05-02T10:00:36.278Z,42.73
2019-05-02T10:03:29.259Z,40.33
2019-05-02T10:06:19.365Z,39.53
2019-05-02T10:09:24.366Z,42.10
2019-05-02T10:15:42.089Z,40.40
2019-05-02T10:18:30.048Z,41.13
2019-05-02T10:21:13.562Z,38.20
2019-05-02T10:32:59.972Z,37.57
2019-05-02T10:36:03.538Z,37.13
2019-05-02T10:38:48.935Z,36.00
2019-05-02T10:41:22.299Z,36.97
2019-05-02T10:44:32.763Z,34.63
2019-05-02T10:46:39.121Z,33.37
2019-05-02T10:56:11.767Z,35.60
2019-05-02T11:05:37.508Z,30.83
2019-05-02T11:08:18.874Z,33.73
2019-05-02T11:11:47.248Z,34.00
2019-05-02T11:14:12.108Z,31.87
2019-05-02T11:20:05.625Z,32.03
2019-05-02T11:33:07.645Z,25.10
2019-05-02T11:35:49.217Z,24.13
2019-05-02T11:56:07.543Z,24.60
2019-05-02T11:56:55.287Z,24.43
2019-05-02T11:59:22.609Z,23.40
2019-05-02T12:01:37.088Z,25.50
2019-05-02T12:03:54.315Z,23.73
2019-05-02T12:06:19.668Z,22.50
2019-05-02T12:08:39.498Z,21.57
2019-05-02T12:11:17.810Z,23.80
2019-05-02T12:13:57.358Z,23.67
2019-05-02T12:16:33.309Z,23.67
2019-05-02T12:19:08.555Z,24.87
2019-05-02T12:22:02.900Z,24.60
2019-05-02T12:24:29.090Z,24.67
2019-05-02T12:26:52.813Z,24.23
2019-05-02T12:29:07.363Z,23.67
2019-05-02T12:35:22.474Z,22.43
2019-05-02T12:46:43.770Z,23.10
2019-05-02T12:52:16.520Z,23.70
2019-05-02T12:54:32.525Z,24.53
2019-05-02T12:57:12.979Z,24.20
2019-05-02T12:59:25.624Z,22.87
2019-05-02T13:04:32.776Z,24.10
2019-05-02T13:07:02.062Z,25.20
2019-05-02T13:09:42.033Z,24.33
2019-05-02T13:12:22.777Z,28.20
2019-05-02T13:14:34.009Z,25.77
2019-05-02T13:16:47.294Z,28.00
2019-05-02T13:18:57.180Z,27.00
2019-05-02T13:21:08.033Z,26.33
2019-05-02T13:23:37.961Z,26.90
2019-05-02T13:25:56.822Z,25.93
2019-05-02T13:28:05.221Z,27.43
2019-05-02T13:30:45.176Z,26.87
2019-05-02T13:32:53.734Z,27.97
2019-05-02T13:35:16.989Z,26.80
2019-05-02T13:37:28.352Z,29.30
2019-05-02T13:39:42.358Z,29.03
2019-05-02T13:42:01.714Z,29.73
2019-05-02T13:44:02.157Z,29.47
2019-05-02T13:46:26.835Z,32.07
2019-05-02T13:48:43.962Z,31.37
2019-05-02T13:50:55.900Z,36.40
2019-05-02T13:53:05.234Z,36.10
2019-05-02T13:55:20.638Z,38.80
2019-05-02T14:00:16.763Z,39.80
2019-05-02T14:02:46.112Z,37.50
2019-05-02T14:04:52.179Z,39.07
2019-05-02T14:07:07.643Z,41.20
2019-05-02T14:09:34.366Z,41.53
2019-05-02T14:12:02.194Z,43.00
2019-05-02T14:14:15.774Z,43.90
2019-05-02T14:16:22.974Z,44.00
2019-05-02T14:18:39.546Z,44.80
2019-05-02T14:20:52.685Z,46.07
2019-05-02T14:23:07.576Z,44.80
2019-05-02T14:25:18.232Z,40.57
2019-05-02T14:27:28.100Z,42.17
2019-05-02T14:29:46.320Z,41.63
2019-05-02T14:31:53.419Z,42.80
2019-05-02T14:34:21.560Z,42.37
2019-05-02T14:36:37.362Z,39.63
2019-05-02T14:38:44.367Z,39.30
2019-05-02T14:41:06.422Z,41.97
2019-05-02T14:43:16.114Z,41.33
2019-05-02T14:45:30.985Z,42.93
2019-05-02T14:47:36.442Z,45.27
2019-05-02T14:49:42.808Z,46.30
2019-05-02T14:51:52.642Z,47.13
2019-05-02T14:54:12.055Z,47.47
2019-05-02T14:56:49.364Z,49.23
2019-05-02T14:58:59.660Z,46.23
2019-05-02T15:01:05.068Z,49.40
2019-05-02T15:03:19.167Z,49.37
2019-05-02T15:05:34.100Z,47.30
2019-05-02T15:07:44.411Z,45.43
2019-05-02T15:09:57.265Z,46.33
2019-05-02T15:12:15.956Z,43.87
2019-05-02T15:14:32.934Z,48.90
2019-05-02T15:16:44.958Z,46.07
2019-05-02T15:19:01.999Z,47.17
2019-05-02T15:21:16.324Z,48.93
2019-05-02T15:26:03.301Z,51.37
2019-05-02T15:28:17.305Z,50.57
2019-05-02T15:30:24.102Z,52.30
2019-05-02T15:33:00.406Z,53.97
2019-05-02T15:35:36.098Z,50.90
2019-05-02T15:37:56.695Z,48.13
2019-05-02T15:42:56.555Z,36.80
2019-05-02T15:45:12.373Z,29.00
2019-05-02T15:47:24.802Z,27.13
2019-05-02T15:49:52.813Z,23.70
2019-05-02T15:52:03.357Z,23.47
2019-05-02T15:54:13.478Z,24.87
2019-05-02T15:56:38.917Z,24.57
2019-05-02T15:59:03.476Z,23.83
2019-05-02T16:01:36.636Z,22.57
2019-05-02T16:03:52.275Z,22.90
2019-05-02T16:06:16.572Z,22.20
2019-05-02T16:08:24.132Z,20.87
2019-05-02T16:10:33.455Z,19.00
2019-05-02T16:12:46.356Z,20.23
2019-05-02T16:14:54.818Z,18.83
2019-05-02T16:17:06.253Z,19.17
2019-05-02T16:19:14.725Z,16.60
2019-05-02T16:21:32.459Z,15.00
2019-05-02T16:23:36.140Z,13.70
2019-05-02T16:25:40.211Z,14.20
2019-05-02T16:27:49.153Z,13.07
2019-05-02T16:30:07.408Z,12.90
2019-05-02T16:32:35.911Z,13.70
2019-05-02T16:34:55.130Z,13.73
2019-05-02T16:37:16.891Z,14.30
2019-05-02T16:39:33.165Z,16.13
2019-05-02T16:41:41.288Z,16.10
2019-05-02T16:43:49.212Z,13.40
2019-05-02T16:45:57.819Z,12.30
2019-05-02T16:48:07.310Z,14.67
2019-05-02T16:50:12.226Z,15.13
2019-05-02T16:52:27.868Z,14.50
2019-05-02T16:54:41.575Z,14.70
2019-05-02T16:56:42.378Z,14.97
2019-05-02T16:58:56.267Z,14.67
2019-05-02T17:01:04.344Z,13.33
2019-05-02T17:03:26.403Z,16.47
2019-05-02T17:05:48.005Z,14.27
2019-05-02T17:08:32.895Z,13.90
2019-05-02T17:11:15.332Z,15.50
2019-05-02T17:13:15.467Z,15.30
2019-05-02T17:15:36.138Z,16.40
2019-05-02T17:17:41.930Z,15.53
2019-05-02T17:19:46.123Z,17.10
2019-05-02T17:21:56.230Z,17.00
2019-05-02T17:24:02.576Z,17.47
2019-05-02T17:26:07.135Z,18.00
2019-05-02T17:28:13.259Z,18.40
2019-05-02T17:30:17.952Z,17.70
2019-05-02T17:32:22.373Z,18.47
2019-05-02T17:34:38.487Z,19.10
2019-05-02T17:37:12.151Z,17.40
2019-05-02T17:39:30.583Z,18.97
2019-05-02T17:41:42.324Z,19.03
2019-05-02T17:44:12.829Z,20.30
2019-05-02T17:46:39.241Z,19.43
2019-05-02T17:48:40.503Z,19.00
2019-05-02T17:50:59.654Z,18.37
2019-05-02T17:53:07.478Z,19.50
2019-05-02T17:55:16.842Z,22.57
2019-05-02T17:57:33.273Z,19.87
2019-05-02T17:59:37.582Z,20.97
2019-05-02T18:01:53.523Z,23.30
2019-05-02T18:04:07.011Z,22.20
2019-05-02T18:06:30.103Z,23.10
2019-05-02T18:08:46.232Z,23.97
2019-05-02T18:13:08.953Z,24.63
2019-05-02T18:15:36.262Z,25.50
2019-05-02T18:17:42.778Z,24.87
2019-05-02T18:19:52.139Z,25.57
2019-05-02T18:22:25.905Z,26.23
2019-05-02T18:24:06.266Z,25.70
2019-05-02T18:26:24.526Z,28.17
2019-05-02T18:28:45.549Z,26.17
2019-05-02T18:31:02.769Z,26.87
2019-05-02T18:33:16.081Z,26.93
2019-05-02T18:35:23.613Z,23.20
2019-05-02T18:37:37.120Z,21.37
2019-05-02T18:40:33.958Z,21.87
2019-05-02T18:43:22.324Z,19.70
2019-05-02T18:47:30.462Z,18.23
2019-05-02T18:49:32.097Z,18.30
2019-05-02T18:52:01.795Z,17.77
2019-05-02T18:54:08.553Z,17.50
2019-05-02T18:56:22.183Z,18.93
2019-05-02T18:58:58.359Z,18.70
2019-05-02T19:01:17.823Z,20.10
2019-05-02T19:04:05.435Z,20.30
2019-05-02T19:06:53.167Z,20.87
2019-05-02T19:09:51.074Z,22.90
2019-05-02T19:12:26.075Z,20.50
2019-05-02T19:15:17.763Z,22.67
2019-05-02T19:17:27.130Z,22.90
2019-05-02T19:19:39.460Z,23.50
2019-05-02T19:21:57.170Z,22.33
2019-05-02T19:24:36.372Z,22.93
2019-05-02T19:27:20.991Z,25.93
2019-05-02T19:29:31.665Z,24.17
2019-05-02T19:32:43.223Z,23.37
2019-05-02T19:38:26.165Z,21.40
2019-05-02T19:41:08.552Z,20.17
2019-05-02T19:43:23.554Z,18.40
2019-05-02T19:46:12.091Z,16.60
2019-05-02T19:51:24.535Z,12.87
2019-05-02T19:56:43.852Z,11.40
2019-05-02T19:59:12.016Z,11.43
2019-05-02T20:02:05.927Z,10.10
2019-05-02T20:04:44.323Z,8.83
2019-05-02T20:07:39.475Z,9.80
2019-05-02T20:10:20.358Z,11.27
2019-05-02T20:12:50.470Z,10.40
2019-05-02T20:15:26.917Z,9.77
2019-05-02T20:18:00.623Z,9.17
2019-05-02T20:20:28.181Z,10.10
2019-05-02T20:22:52.424Z,8.50
2019-05-02T20:25:22.653Z,8.83
2019-05-02T20:30:59.092Z,9.13
2019-05-02T20:40:40.325Z,6.33
2019-05-02T20:47:25.311Z,6.13
2019-05-02T20:49:36.861Z,5.60
2019-05-02T20:52:41.729Z,5.63
2019-05-02T20:58:30.014Z,6.20
2019-05-02T21:07:52.990Z,6.70
2019-05-02T21:13:49.644Z,5.30
2019-05-02T21:24:13.058Z,5.40
2019-05-02T21:26:07.550Z,4.50
2019-05-02T21:32:51.957Z,6.07
2019-05-02T21:42:31.802Z,5.83
2019-05-02T21:47:54.764Z,5.63
2019-05-02T21:56:37.040Z,5.00
2019-05-02T22:03:33.283Z,5.40
2019-05-02T22:10:13.232Z,5.33
2019-05-02T22:12:38.883Z,4.10
2019-05-02T22:15:54.967Z,4.50
2019-05-02T22:21:56.844Z,4.00
2019-05-02T22:24:54.374Z,3.57
2019-05-02T22:37:03.249Z,4.37
2019-05-02T22:43:36.042Z,4.00
2019-05-02T22:46:14.067Z,4.23
2019-05-02T22:48:52.296Z,3.80
2019-05-02T22:51:25.973Z,4.23
2019-05-02T22:53:48.668Z,5.23
2019-05-02T22:57:18.476Z,4.00
2019-05-02T22:59:42.139Z,3.90
2019-05-02T23:07:58.346Z,4.20
2019-05-02T23:13:24.660Z,5.43
2019-05-02T23:18:07.349Z,6.30
2019-05-02T23:27:14.132Z,5.00
2019-05-02T23:29:58.232Z,6.47
2019-05-02T23:32:44.028Z,6.90
2019-05-02T23:38:25.424Z,6.90
2019-05-02T23:41:09.910Z,6.97
2019-05-02T23:44:19.077Z,6.67
2019-05-02T23:46:37.455Z,6.20
2019-05-02T23:49:52.054Z,7.13
2019-05-02T23:53:12.789Z,8.20
2019-05-02T23:56:32.475Z,6.37
2019-05-02T23:58:45.280Z,7.00
